Ana Sayfa
METAR-TAF:

METAR-TAF

Havaalanları :

Big Spring McMahon-Wrinkle Airport

Big Spring, Teksas, Amerika Birleşik Devletleri

Enlem: 32-12N, Boylam: 101-31W, yükseklik: 784 m

Güncel hava durumu gözlemi

Rapor saat 09:15 UTC de 17 dakika önce yapıldı.
Rüzgar doğudan 5 kt
Sıcaklık 17°C
Nem 82%
Basınç 1011 hPa
Görüş mesafesi: 16.1 km
2200 ft yükseklikte parçalı bulutlu

METAR: KBPG 250915Z AUTO 10005KT 10SM SCT022 17/14 A2984 RMK AO2 T01670138

Saat: 04:32 (09:32 UTC)


TAF: eksik

4.000'den fazla havaalanı için hava durumu gözlemleri ve tahminleri (METAR ve TAF raporları).

Kullanılabilir istasyonlar harita üzerinde sarı ve kırmızı noktalarla gösterilir.

İstasyonun adını görmek için fareyi noktanın üzerinde gezdirin.

Sonrasında hava gözlem ve tahminlerini görmek için tıklayın.

Haritayı değiştirmek için: yaklaştırmak için siyah artı işaretli yeşil düğmeye ve uzaklaştırmak için de eksi işaretli düğmeye hızla tıklayın; bitişik haritalar için yeşil okları kullanın.


METAR-TAF: